Time;durP1;ratioP1;P1;durP2;ratioP2;P2;SDS_P1;SDS_P2;PMS_P1;PMS_P2;Temp;Humidity;BMP_temperature;BMP_pressure;BME280_temperature;BME280_humidity;BME280_pressure;Samples;Min_cycle;Max_cycle;Signal;HPM_P1;HPM_P2
2023/08/06 00:05:38;;;;;;;9.95;8.98;;;;;;;18.00;69.68;100382.72;15659453;28;19968;-53
2023/08/06 00:13:12;;;;;;;14.25;9.98;;;;;;;18.29;68.73;100390.38;15697334;22;20060;-57
2023/08/06 00:20:45;;;;;;;11.45;10.20;;;;;;;17.82;70.85;100386.75;15682948;28;20059;-53
2023/08/06 00:28:19;;;;;;;11.85;10.30;;;;;;;18.00;69.87;100380.00;15682312;28;20049;-54
2023/08/06 00:35:52;;;;;;;11.52;9.68;;;;;;;17.89;70.78;100377.53;15645303;28;20142;-56
2023/08/06 00:43:27;;;;;;;11.68;10.48;;;;;;;18.02;70.57;100377.84;15629656;28;20053;-54
2023/08/06 00:51:07;;;;;;;11.70;10.50;;;;;;;18.09;70.10;100369.41;15660380;28;20068;-57
2023/08/06 00:58:42;;;;;;;13.25;10.13;;;;;;;18.27;69.31;100359.94;15617757;28;20059;-59
2023/08/06 01:06:19;;;;;;;11.02;9.93;;;;;;;17.88;70.49;100357.72;15616685;28;20037;-58
2023/08/06 01:14:09;;;;;;;14.57;9.55;;;;;;;18.01;69.97;100340.91;15616617;28;20049;-59
2023/08/06 01:21:43;;;;;;;10.57;9.47;;;;;;;18.23;69.29;100342.53;15615528;28;20049;-58
2023/08/06 01:29:20;;;;;;;11.05;9.85;;;;;;;18.20;69.32;100334.94;15599474;28;20091;-56
2023/08/06 01:36:55;;;;;;;10.68;9.57;;;;;;;18.06;70.06;100326.50;15616359;28;20045;-55
2023/08/06 01:44:28;;;;;;;12.48;9.77;;;;;;;18.13;69.84;100316.19;15636843;28;20572;-58
2023/08/06 01:52:03;;;;;;;11.38;9.95;;;;;;;17.88;71.05;100319.69;15677404;28;20416;-53
2023/08/06 01:59:37;;;;;;;11.85;10.23;;;;;;;18.05;69.99;100312.13;15659369;28;20048;-54
2023/08/06 02:07:11;;;;;;;;;;;;;;;17.47;72.18;100313.31;15659420;28;20366;-56
2023/08/06 02:14:44;;;;;;;11.57;9.50;;;;;;;17.27;73.07;100306.72;15640137;28;20566;-55
2023/08/06 02:22:19;;;;;;;11.68;9.88;;;;;;;17.26;73.28;100305.09;15612134;28;20445;-57
2023/08/06 02:29:53;;;;;;;13.65;11.05;;;;;;;17.33;73.38;100296.72;15612769;28;20063;-59
2023/08/06 02:37:28;;;;;;;12.65;10.75;;;;;;;17.38;73.61;100280.44;15635370;28;20045;-56
2023/08/06 02:45:01;;;;;;;10.85;9.70;;;;;;;17.31;74.15;100264.44;15656650;28;20061;-58
2023/08/06 02:52:38;;;;;;;10.68;9.57;;;;;;;17.27;74.01;100265.22;15653102;28;20056;-57
2023/08/06 03:00:12;;;;;;;11.18;10.00;;;;;;;17.12;74.75;100255.16;15656071;28;20037;-60
2023/08/06 03:07:48;;;;;;;14.10;10.82;;;;;;;17.08;75.17;100254.03;15655500;28;20069;-54
2023/08/06 03:15:27;;;;;;;13.50;10.68;;;;;;;16.96;75.34;100250.72;15638687;28;20041;-54
2023/08/06 03:23:02;;;;;;;12.63;11.15;;;;;;;17.13;75.34;100236.97;15655233;28;20048;-56
2023/08/06 03:30:37;;;;;;;16.67;11.43;;;;;;;17.45;73.97;100239.50;15654253;28;20033;-53
2023/08/06 03:38:14;;;;;;;12.65;11.18;;;;;;;17.35;74.63;100229.44;15654450;28;20116;-53
2023/08/06 03:45:47;;;;;;;13.90;12.05;;;;;;;17.44;73.73;100225.13;15653256;28;20048;-56
2023/08/06 03:53:23;;;;;;;13.40;11.77;;;;;;;17.47;73.85;100216.44;15653810;28;20053;-56
2023/08/06 04:01:00;;;;;;;14.48;12.48;;;;;;;17.34;74.28;100201.47;15653297;28;20045;-55
2023/08/06 04:08:38;;;;;;;15.48;12.82;;;;;;;17.41;74.50;100195.81;15653227;28;20371;-54
2023/08/06 04:16:13;;;;;;;17.23;12.68;;;;;;;17.39;74.49;100189.00;15605965;28;20133;-56
2023/08/06 04:23:47;;;;;;;16.02;13.73;;;;;;;17.23;75.06;100180.84;15591410;28;20107;-55
2023/08/06 04:31:23;;;;;;;15.68;13.50;;;;;;;17.39;74.27;100170.84;15590297;28;20038;-55
2023/08/06 04:38:58;;;;;;;15.80;14.20;;;;;;;17.45;74.12;100158.13;15575127;28;20123;-57
2023/08/06 04:46:32;;;;;;;16.70;13.75;;;;;;;17.46;74.25;100157.03;15591167;28;20076;-58
2023/08/06 04:54:06;;;;;;;;;;;;;;;17.04;74.97;100147.19;15611716;28;20041;-55
2023/08/06 05:01:39;;;;;;;14.20;12.55;;;;;;;16.97;75.75;100143.91;15619150;28;19921;-53
2023/08/06 05:09:14;;;;;;;13.98;12.45;;;;;;;17.15;75.56;100129.84;15619150;28;20048;-54
2023/08/06 05:16:47;;;;;;;13.30;11.93;;;;;;;17.25;74.35;100126.31;15671436;28;20127;-55
2023/08/06 05:24:22;;;;;;;14.15;12.10;;;;;;;17.11;75.38;100119.81;15661650;28;20053;-53
2023/08/06 05:31:54;;;;;;;14.98;11.77;;;;;;;17.17;75.33;100107.91;15660895;28;20041;-58
2023/08/06 05:39:29;;;;;;;13.43;11.18;;;;;;;16.95;76.13;100100.00;15660299;28;20140;-58
2023/08/06 05:47:02;;;;;;;14.52;12.48;;;;;;;17.11;75.39;100087.25;15678276;28;20049;-51
2023/08/06 05:54:36;;;;;;;;;;;;;;;16.86;75.86;100091.56;15660379;28;20569;-55
2023/08/06 06:02:09;;;;;;;12.73;11.35;;;;;;;17.07;75.58;100082.41;15677828;28;19994;-54
2023/08/06 06:09:43;;;;;;;;;;;;;;;16.70;76.76;100090.69;15658565;28;20049;-51
2023/08/06 06:17:16;;;;;;;12.80;11.10;;;;;;;17.51;74.22;100095.44;15619513;28;19921;-50
2023/08/06 06:24:50;;;;;;;13.15;11.13;;;;;;;16.66;78.42;100092.28;15613921;28;20053;-57
2023/08/06 06:32:23;;;;;;;13.07;10.88;;;;;;;17.68;75.67;100088.91;15596670;28;20129;-56
2023/08/06 06:39:57;;;;;;;;;;;;;;;17.12;77.13;100083.50;15613215;28;20347;-55
2023/08/06 06:47:30;;;;;;;12.98;11.68;;;;;;;17.63;74.75;100086.22;15613580;28;19925;-54
2023/08/06 06:55:05;;;;;;;;;;;;;;;17.62;74.57;100074.50;15595380;28;20065;-55
2023/08/06 07:02:39;;;;;;;10.82;9.52;;;;;;;17.44;75.07;100084.06;15612064;28;19928;-53
2023/08/06 07:10:13;;;;;;;11.82;10.63;;;;;;;16.94;77.11;100076.69;15611044;28;20128;-52
2023/08/06 07:17:46;;;;;;;10.75;9.38;;;;;;;17.43;75.65;100082.41;15653637;28;20124;-50
2023/08/06 07:25:20;;;;;;;10.35;9.15;;;;;;;17.92;73.32;100084.56;15672260;28;20045;-52
2023/08/06 07:32:55;;;;;;;10.35;9.35;;;;;;;18.01;72.92;100084.81;15671444;28;20434;-53
2023/08/06 07:40:30;;;;;;;11.18;9.38;;;;;;;18.30;72.62;100082.28;15673225;28;20107;-55
2023/08/06 07:48:03;;;;;;;10.80;9.27;;;;;;;18.26;71.05;100071.13;15653834;28;20474;-53
2023/08/06 07:55:38;;;;;;;13.52;9.35;;;;;;;18.25;73.04;100077.66;15671507;28;20118;-51
2023/08/06 08:03:11;;;;;;;11.15;10.05;;;;;;;18.55;71.79;100073.19;15670897;28;20489;-56
2023/08/06 08:10:46;;;;;;;10.82;9.57;;;;;;;18.58;71.11;100070.72;15649676;28;20402;-53
2023/08/06 08:18:19;;;;;;;13.73;10.77;;;;;;;18.45;72.94;100065.09;15575099;28;20061;-53
2023/08/06 08:25:53;;;;;;;;;;;;;;;18.26;71.60;100064.91;15609271;28;20136;-55
2023/08/06 08:33:26;;;;;;;15.13;10.70;;;;;;;18.50;72.36;100044.13;15620685;28;19932;-52
2023/08/06 08:41:00;;;;;;;;;;;;;;;17.66;75.13;100048.47;15656330;28;20045;-56
2023/08/06 08:48:34;;;;;;;9.40;8.40;;;;;;;18.44;72.25;100026.22;15680279;28;19921;-54
2023/08/06 08:56:08;;;;;;;11.43;10.07;;;;;;;17.71;75.46;100021.31;15681412;28;20051;-51
2023/08/06 09:03:43;;;;;;;13.32;11.98;;;;;;;17.27;76.94;100018.41;15679222;28;20048;-54
2023/08/06 09:11:20;;;;;;;12.65;11.45;;;;;;;18.00;73.80;100009.84;15680200;28;20049;-54
2023/08/06 09:18:53;;;;;;;12.32;11.13;;;;;;;18.01;75.07;100004.16;15662388;28;20144;-53
2023/08/06 09:26:34;;;;;;;12.43;11.13;;;;;;;17.58;76.96;100001.00;15645720;28;20044;-52
2023/08/06 09:34:12;;;;;;;12.60;11.38;;;;;;;18.50;73.95;99986.25;15679813;28;20516;-55
2023/08/06 09:41:48;;;;;;;13.07;11.70;;;;;;;18.18;75.26;99978.53;15678015;28;20061;-56
2023/08/06 09:49:25;;;;;;;12.85;11.52;;;;;;;18.12;74.84;99971.53;15678332;28;20139;-56
2023/08/06 09:57:00;;;;;;;15.52;12.95;;;;;;;18.23;75.06;99967.66;15678042;28;20159;-52
2023/08/06 10:04:34;;;;;;;13.82;12.40;;;;;;;18.42;74.86;99963.22;15659323;28;20100;-53
2023/08/06 10:12:08;;;;;;;15.50;13.15;;;;;;;18.19;74.86;99955.75;15644056;28;20057;-54
2023/08/06 10:19:43;;;;;;;12.55;11.35;;;;;;;18.21;74.31;99954.34;15615180;28;20137;-51
2023/08/06 10:27:29;;;;;;;12.65;11.35;;;;;;;18.90;73.34;99938.16;15613914;28;20045;-55
2023/08/06 10:35:02;;;;;;;12.90;11.50;;;;;;;18.69;75.41;99937.50;15612906;28;20059;-56
2023/08/06 10:42:42;;;;;;;13.05;11.38;;;;;;;18.39;74.33;99933.06;15613085;28;20064;-56
2023/08/06 10:50:18;;;;;;;13.38;11.73;;;;;;;18.48;74.72;99925.94;15612212;28;20069;-56
2023/08/06 10:57:52;;;;;;;11.02;9.90;;;;;;;18.54;74.39;99922.09;15612552;28;20479;-55
2023/08/06 11:05:27;;;;;;;11.00;9.85;;;;;;;18.66;73.27;99916.31;15612104;28;20057;-52
2023/08/06 11:13:04;;;;;;;10.32;9.27;;;;;;;18.73;74.40;99898.59;15616216;28;20068;-54
2023/08/06 11:20:37;;;;;;;10.63;9.57;;;;;;;18.98;73.59;99896.72;15672821;28;20045;-54
2023/08/06 11:28:12;;;;;;;10.18;9.18;;;;;;;18.70;73.88;99882.88;15653686;28;20494;-51
2023/08/06 11:35:46;;;;;;;9.70;8.65;;;;;;;18.59;74.31;99875.84;15671691;28;20044;-52
2023/08/06 11:43:22;;;;;;;9.90;8.13;;;;;;;19.11;72.94;99860.69;15671247;28;20524;-53
2023/08/06 11:50:58;;;;;;;10.27;9.15;;;;;;;19.01;74.38;99856.19;15671066;28;20037;-55
2023/08/06 11:58:34;;;;;;;9.05;8.00;;;;;;;19.08;72.50;99850.41;15654336;28;20128;-55
2023/08/06 12:06:07;;;;;;;8.75;7.82;;;;;;;19.12;72.76;99851.47;15662676;28;20043;-56
2023/08/06 12:13:42;;;;;;;10.70;8.32;;;;;;;19.12;72.67;99837.88;15638729;28;20080;-53
2023/08/06 12:21:15;;;;;;;9.38;8.18;;;;;;;18.99;73.66;99833.09;15621238;28;20544;-54
2023/08/06 12:28:49;;;;;;;;;;;;;;;18.55;74.18;99828.59;15619895;28;20451;-51
2023/08/06 12:36:25;;;;;;;9.43;8.45;;;;;;;18.95;72.33;99837.50;15620567;28;20340;-54
2023/08/06 12:44:00;;;;;;;10.60;8.32;;;;;;;19.54;71.12;99839.00;15618094;28;20042;-55
2023/08/06 12:51:35;;;;;;;9.10;7.95;;;;;;;19.66;70.82;99844.03;15619840;28;20513;-54
2023/08/06 12:59:10;;;;;;;9.02;8.10;;;;;;;19.75;70.42;99837.66;15618961;28;20131;-51
2023/08/06 13:06:43;;;;;;;9.63;8.63;;;;;;;19.51;71.08;99836.84;15618475;28;20128;-53
2023/08/06 13:14:18;;;;;;;8.88;7.97;;;;;;;19.75;71.09;99836.84;15647604;28;20060;-57
2023/08/06 13:22:03;;;;;;;4.75;4.25;;;;;;;19.14;66.19;99845.72;15661615;28;20091;-53
2023/08/06 13:29:38;;;;;;;3.22;2.10;;;;;;;18.06;69.35;99852.06;15678934;28;20053;-50
2023/08/06 13:37:12;;;;;;;4.05;3.20;;;;;;;17.32;71.94;99847.50;15679133;28;20045;-56
2023/08/06 13:44:46;;;;;;;5.78;3.50;;;;;;;17.46;71.97;99853.16;15661447;28;20041;-55
2023/08/06 13:52:20;;;;;;;4.03;3.15;;;;;;;17.33;72.36;99833.66;15677115;28;20051;-54
2023/08/06 13:59:54;;;;;;;;;;;;;;;16.16;78.14;99841.09;15659859;28;20497;-56
2023/08/06 14:07:27;;;;;;;12.38;8.25;;;;;;;17.12;75.94;99823.97;15659477;28;19952;-52
2023/08/06 14:15:03;;;;;;;11.43;7.85;;;;;;;17.21;76.81;99824.22;15637868;28;20060;-54
2023/08/06 14:22:36;;;;;;;13.90;7.63;;;;;;;17.90;74.43;99817.13;15613018;28;20121;-54
2023/08/06 14:30:12;;;;;;;12.68;8.20;;;;;;;17.85;75.21;99818.78;15613311;28;20120;-55
2023/08/06 14:37:45;;;;;;;9.48;7.07;;;;;;;18.04;74.15;99824.34;15627139;28;20051;-55
2023/08/06 14:45:20;;;;;;;11.00;8.43;;;;;;;17.80;74.58;99826.94;15673655;28;20091;-54
2023/08/06 14:52:53;;;;;;;13.13;9.57;;;;;;;17.99;74.13;99818.94;15674614;28;20234;-55
2023/08/06 15:00:28;;;;;;;11.65;9.23;;;;;;;17.89;74.46;99819.03;15673842;28;20049;-55
2023/08/06 15:08:01;;;;;;;13.52;9.25;;;;;;;18.21;74.15;99821.25;15673966;28;20047;-55
2023/08/06 15:15:35;;;;;;;14.07;10.07;;;;;;;18.22;74.29;99820.16;15673329;28;20060;-52
2023/08/06 15:23:09;;;;;;;13.27;9.90;;;;;;;18.15;75.25;99835.97;15673061;28;20617;-54
2023/08/06 15:30:49;;;;;;;;;;;;;;;17.42;78.13;99839.31;15655469;28;20350;-50
2023/08/06 15:38:22;;;;;;;13.77;9.30;;;;;;;17.55;77.76;99854.19;15655012;28;20263;-57
2023/08/06 15:45:56;;;;;;;12.02;9.10;;;;;;;16.84;79.43;99849.78;15672931;28;20115;-52
2023/08/06 15:53:31;;;;;;;11.52;8.70;;;;;;;17.04;79.78;99848.94;15653923;28;20397;-52
2023/08/06 16:01:06;;;;;;;13.00;9.40;;;;;;;17.59;77.90;99845.22;15671866;28;20071;-56
2023/08/06 16:08:39;;;;;;;13.18;9.27;;;;;;;17.91;77.22;99841.28;15671070;28;20492;-56
2023/08/06 16:16:13;;;;;;;;;;;;;;;17.76;76.47;99853.03;15623955;28;20050;-52
2023/08/06 16:23:47;;;;;;;11.43;8.48;;;;;;;17.37;78.27;99850.19;15610440;28;19953;-56
2023/08/06 16:31:21;;;;;;;15.80;9.80;;;;;;;17.26;77.97;99840.47;15608669;28;20174;-55
2023/08/06 16:38:56;;;;;;;11.73;8.32;;;;;;;16.99;79.48;99854.38;15608235;28;20360;-56
2023/08/06 16:46:30;;;;;;;11.95;8.73;;;;;;;16.73;80.70;99857.09;15608712;28;20053;-55
2023/08/06 16:54:03;;;;;;;13.07;9.30;;;;;;;16.30;81.64;99853.03;15618760;28;20072;-56
2023/08/06 17:01:39;;;;;;;10.48;7.72;;;;;;;16.29;81.58;99844.09;15619639;28;20089;-53
2023/08/06 17:09:13;;;;;;;10.32;8.70;;;;;;;16.61;81.25;99829.47;15617857;28;20490;-55
2023/08/06 17:16:49;;;;;;;12.65;9.13;;;;;;;16.80;80.44;99833.25;15663720;28;20164;-56
2023/08/06 17:24:22;;;;;;;11.75;8.88;;;;;;;16.49;80.68;99829.72;15679745;28;20052;-55
2023/08/06 17:31:56;;;;;;;;;;;;;;;16.71;80.06;99817.81;15661223;28;20089;-56
2023/08/06 17:39:31;;;;;;;15.23;10.25;;;;;;;16.50;81.70;99819.69;15679501;28;20385;-54
2023/08/06 17:47:05;;;;;;;15.52;10.18;;;;;;;16.48;82.13;99827.31;15678622;28;20084;-50
2023/08/06 17:54:38;;;;;;;14.80;10.73;;;;;;;16.59;81.28;99829.72;15659630;28;20048;-52
2023/08/06 18:02:12;;;;;;;22.77;10.55;;;;;;;16.61;81.13;99829.47;15659291;28;20474;-56
2023/08/06 18:09:45;;;;;;;17.33;11.65;;;;;;;16.94;79.77;99828.09;15677481;28;20140;-56
2023/08/06 18:17:20;;;;;;;17.27;10.82;;;;;;;16.84;79.92;99822.69;15614087;28;20129;-56
2023/08/06 18:24:52;;;;;;;19.00;11.25;;;;;;;16.70;80.88;99827.03;15614689;28;20046;-57
2023/08/06 18:32:27;;;;;;;12.88;10.90;;;;;;;16.76;80.01;99825.94;15612324;28;20041;-57
2023/08/06 18:40:02;;;;;;;15.38;10.20;;;;;;;16.49;81.42;99837.03;15614048;28;20053;-56
2023/08/06 18:47:36;;;;;;;13.32;10.23;;;;;;;16.47;81.21;99841.94;15595712;28;20045;-57
2023/08/06 18:55:10;;;;;;;16.30;10.90;;;;;;;16.72;80.33;99846.53;15612063;28;20540;-57
2023/08/06 19:02:44;;;;;;;14.18;11.38;;;;;;;16.75;79.76;99837.88;15611264;28;20120;-57
2023/08/06 19:10:18;;;;;;;13.32;10.82;;;;;;;16.37;80.69;99852.75;15611871;28;20046;-53
2023/08/06 19:17:54;;;;;;;15.50;10.90;;;;;;;16.98;78.86;99856.28;15610880;28;20505;-53
2023/08/06 19:25:27;;;;;;;19.13;11.00;;;;;;;17.13;77.38;99851.91;15610979;28;20053;-56
2023/08/06 19:33:02;;;;;;;15.70;11.68;;;;;;;16.78;79.06;99853.56;15593390;28;20041;-53
2023/08/06 19:40:35;;;;;;;17.60;11.93;;;;;;;17.30;76.78;99853.22;15610532;28;20045;-58
2023/08/06 19:48:11;;;;;;;17.92;12.05;;;;;;;17.12;76.99;99853.00;15611402;28;20041;-57
2023/08/06 19:55:43;;;;;;;18.65;12.73;;;;;;;16.89;77.80;99848.97;15593161;28;20616;-58
2023/08/06 20:03:18;;;;;;;20.63;12.70;;;;;;;16.14;80.79;99856.81;15609783;28;20073;-55
2023/08/06 20:10:54;;;;;;;19.35;12.05;;;;;;;16.49;80.26;99850.59;15595481;28;20050;-56
2023/08/06 20:18:28;;;;;;;17.55;12.10;;;;;;;16.87;79.10;99848.41;15670959;28;20103;-57
2023/08/06 20:26:03;;;;;;;18.90;12.57;;;;;;;16.16;81.65;99844.59;15677523;28;20132;-55
2023/08/06 20:33:42;;;;;;;16.38;12.23;;;;;;;16.46;80.80;99840.28;15683004;28;20049;-57
2023/08/06 20:41:15;;;;;;;16.10;12.20;;;;;;;16.66;79.66;99839.50;15664300;28;20068;-53
2023/08/06 20:48:50;;;;;;;18.00;13.30;;;;;;;16.79;79.49;99842.47;15682349;28;20413;-57
2023/08/06 20:56:23;;;;;;;19.23;13.52;;;;;;;16.99;78.28;99847.06;15680852;28;20388;-57
2023/08/06 21:04:00;;;;;;;17.33;13.52;;;;;;;17.03;78.57;99852.75;15647346;28;20045;-56
2023/08/06 21:11:33;;;;;;;20.92;14.35;;;;;;;16.81;79.40;99851.13;15662519;28;20417;-56
2023/08/06 21:19:07;;;;;;;;;;;;;;;17.05;78.38;99845.13;15662700;28;20044;-55
2023/08/06 21:26:40;;;;;;;19.20;11.45;;;;;;;16.64;80.04;99845.16;15661584;28;19952;-55
2023/08/06 21:34:15;;;;;;;;;;;;;;;16.44;80.43;99856.00;15679463;28;20045;-56
2023/08/06 21:41:48;;;;;;;11.75;8.50;;;;;;;16.59;79.47;99856.00;15661354;28;20367;-57
2023/08/06 21:49:23;;;;;;;13.10;7.20;;;;;;;16.33;78.58;99858.72;15678010;28;20128;-52
2023/08/06 21:56:56;;;;;;;12.50;6.43;;;;;;;16.73;76.71;99854.41;15677857;28;20131;-56
2023/08/06 22:04:30;;;;;;;10.57;6.88;;;;;;;16.54;77.37;99850.59;15659566;28;20069;-58
2023/08/06 22:12:04;;;;;;;12.18;6.80;;;;;;;16.69;76.42;99858.69;15644641;28;20159;-52
2023/08/06 22:19:39;;;;;;;9.02;6.22;;;;;;;16.54;75.92;99859.53;15612932;28;20057;-57
2023/08/06 22:27:13;;;;;;;7.95;5.30;;;;;;;16.01;76.39;99864.34;15615156;28;20447;-57
2023/08/06 22:34:47;;;;;;;9.10;5.05;;;;;;;16.44;74.63;99864.94;15612553;28;20046;-54
2023/08/06 22:42:20;;;;;;;12.00;5.13;;;;;;;16.26;75.18;99865.47;15614235;28;20045;-55
2023/08/06 22:49:54;;;;;;;7.18;4.72;;;;;;;15.76;76.83;99873.22;15612850;28;20045;-57
2023/08/06 22:57:27;;;;;;;9.43;5.18;;;;;;;16.23;75.81;99891.22;15612552;28;20077;-58
2023/08/06 23:05:02;;;;;;;10.85;5.18;;;;;;;16.18;75.39;99883.06;15594471;28;20080;-57
2023/08/06 23:12:35;;;;;;;11.40;4.85;;;;;;;15.59;77.35;99882.59;15630028;28;20048;-57
2023/08/06 23:20:10;;;;;;;6.68;4.47;;;;;;;15.65;77.09;99886.97;15674085;28;20429;-57
2023/08/06 23:27:42;;;;;;;13.48;4.97;;;;;;;15.70;76.65;99887.78;15672851;28;20045;-56
2023/08/06 23:35:18;;;;;;;7.45;4.60;;;;;;;15.87;76.05;99884.06;15672487;28;20098;-57
2023/08/06 23:42:51;;;;;;;9.70;5.13;;;;;;;15.52;76.67;99878.22;15672187;28;20045;-56
2023/08/06 23:50:30;;;;;;;6.68;4.70;;;;;;;15.74;75.49;99885.38;15671858;28;20060;-55
2023/08/06 23:58:03;;;;;;;8.80;5.00;;;;;;;15.51;76.96;99876.59;15674567;28;20340;-57
